sensor_id;sensor_type;location;lat;lon;timestamp;temperature;humidity
24232;DHT22;12364;47.810;8.810;2023-04-15T04:31:54;6.90;85.80
24232;DHT22;12364;47.810;8.810;2023-04-15T04:34:21;6.80;85.70
24232;DHT22;12364;47.810;8.810;2023-04-15T04:36:48;6.90;85.70
24232;DHT22;12364;47.810;8.810;2023-04-15T04:39:15;6.90;85.80
24232;DHT22;12364;47.810;8.810;2023-04-15T04:41:42;6.90;85.80
24232;DHT22;12364;47.810;8.810;2023-04-15T04:44:10;6.90;85.90
24232;DHT22;12364;47.810;8.810;2023-04-15T04:46:36;6.90;85.70
24232;DHT22;12364;47.810;8.810;2023-04-15T04:49:03;7.00;86.40
24232;DHT22;12364;47.810;8.810;2023-04-15T04:51:30;7.00;86.30
24232;DHT22;12364;47.810;8.810;2023-04-15T04:53:58;7.10;86.00
24232;DHT22;12364;47.810;8.810;2023-04-15T04:56:27;7.10;86.10
24232;DHT22;12364;47.810;8.810;2023-04-15T04:58:53;7.10;86.20
24232;DHT22;12364;47.810;8.810;2023-04-15T05:01:20;7.10;86.10
24232;DHT22;12364;47.810;8.810;2023-04-15T05:03:47;7.10;86.20
24232;DHT22;12364;47.810;8.810;2023-04-15T05:06:15;7.10;86.50
24232;DHT22;12364;47.810;8.810;2023-04-15T05:08:42;7.10;86.70
24232;DHT22;12364;47.810;8.810;2023-04-15T05:11:09;7.10;86.70
24232;DHT22;12364;47.810;8.810;2023-04-15T05:13:36;7.10;86.70
24232;DHT22;12364;47.810;8.810;2023-04-15T05:16:04;7.00;86.80
24232;DHT22;12364;47.810;8.810;2023-04-15T05:18:32;7.00;87.20
24232;DHT22;12364;47.810;8.810;2023-04-15T05:20:59;7.10;87.40
24232;DHT22;12364;47.810;8.810;2023-04-15T05:23:26;7.10;87.30
24232;DHT22;12364;47.810;8.810;2023-04-15T05:25:53;7.10;87.30
24232;DHT22;12364;47.810;8.810;2023-04-15T05:28:20;7.00;87.60
24232;DHT22;12364;47.810;8.810;2023-04-15T05:30:47;7.10;87.90
24232;DHT22;12364;47.810;8.810;2023-04-15T05:33:14;7.10;88.00
24232;DHT22;12364;47.810;8.810;2023-04-15T05:35:41;7.20;88.20
24232;DHT22;12364;47.810;8.810;2023-04-15T05:38:08;7.20;88.20
24232;DHT22;12364;47.810;8.810;2023-04-15T05:40:35;7.20;88.30
24232;DHT22;12364;47.810;8.810;2023-04-15T05:43:02;7.20;88.50
24232;DHT22;12364;47.810;8.810;2023-04-15T05:45:29;7.20;89.20
24232;DHT22;12364;47.810;8.810;2023-04-15T05:47:56;7.30;88.80
24232;DHT22;12364;47.810;8.810;2023-04-15T05:50:23;7.30;88.60
24232;DHT22;12364;47.810;8.810;2023-04-15T05:52:50;7.30;88.50
24232;DHT22;12364;47.810;8.810;2023-04-15T05:55:17;7.40;88.70
24232;DHT22;12364;47.810;8.810;2023-04-15T05:57:44;7.40;88.50
24232;DHT22;12364;47.810;8.810;2023-04-15T06:00:11;7.40;88.20
24232;DHT22;12364;47.810;8.810;2023-04-15T06:02:38;7.50;88.20
24232;DHT22;12364;47.810;8.810;2023-04-15T06:05:06;7.50;88.00
24232;DHT22;12364;47.810;8.810;2023-04-15T06:07:36;7.50;88.30
24232;DHT22;12364;47.810;8.810;2023-04-15T06:10:03;7.50;88.80
24232;DHT22;12364;47.810;8.810;2023-04-15T06:12:30;7.60;89.80
24232;DHT22;12364;47.810;8.810;2023-04-15T06:14:57;7.70;90.00
24232;DHT22;12364;47.810;8.810;2023-04-15T06:17:26;7.80;90.00
24232;DHT22;12364;47.810;8.810;2023-04-15T06:19:53;7.90;89.10
24232;DHT22;12364;47.810;8.810;2023-04-15T06:22:23;7.90;88.90
24232;DHT22;12364;47.810;8.810;2023-04-15T06:24:50;7.90;88.80
24232;DHT22;12364;47.810;8.810;2023-04-15T06:27:17;8.00;89.70
24232;DHT22;12364;47.810;8.810;2023-04-15T06:29:44;8.10;89.80
24232;DHT22;12364;47.810;8.810;2023-04-15T06:32:11;8.20;89.30
24232;DHT22;12364;47.810;8.810;2023-04-15T06:34:38;8.10;88.90
24232;DHT22;12364;47.810;8.810;2023-04-15T06:37:06;8.20;89.00
24232;DHT22;12364;47.810;8.810;2023-04-15T06:39:33;8.20;89.30
24232;DHT22;12364;47.810;8.810;2023-04-15T06:42:00;8.30;89.50
24232;DHT22;12364;47.810;8.810;2023-04-15T06:44:27;8.30;89.60
24232;DHT22;12364;47.810;8.810;2023-04-15T06:46:54;8.30;89.70
24232;DHT22;12364;47.810;8.810;2023-04-15T06:49:22;8.40;90.10
24232;DHT22;12364;47.810;8.810;2023-04-15T06:51:49;8.40;90.00
24232;DHT22;12364;47.810;8.810;2023-04-15T06:54:17;8.50;89.90
24232;DHT22;12364;47.810;8.810;2023-04-15T06:56:44;8.60;89.90
24232;DHT22;12364;47.810;8.810;2023-04-15T06:59:11;8.60;90.00
24232;DHT22;12364;47.810;8.810;2023-04-15T07:01:41;8.70;90.20
24232;DHT22;12364;47.810;8.810;2023-04-15T07:04:08;8.70;90.10
24232;DHT22;12364;47.810;8.810;2023-04-15T07:06:35;8.80;90.30
24232;DHT22;12364;47.810;8.810;2023-04-15T07:09:02;8.90;90.10
24232;DHT22;12364;47.810;8.810;2023-04-15T07:11:31;8.90;90.10
24232;DHT22;12364;47.810;8.810;2023-04-15T07:13:58;9.00;90.20
24232;DHT22;12364;47.810;8.810;2023-04-15T07:16:25;9.10;90.20
24232;DHT22;12364;47.810;8.810;2023-04-15T07:18:55;9.10;90.30
24232;DHT22;12364;47.810;8.810;2023-04-15T07:21:23;9.20;90.20
24232;DHT22;12364;47.810;8.810;2023-04-15T07:23:50;9.20;90.40
24232;DHT22;12364;47.810;8.810;2023-04-15T07:26:17;9.20;90.10
24232;DHT22;12364;47.810;8.810;2023-04-15T07:28:44;9.30;89.50
24232;DHT22;12364;47.810;8.810;2023-04-15T07:31:13;9.30;90.00
24232;DHT22;12364;47.810;8.810;2023-04-15T07:33:40;9.50;89.90
24232;DHT22;12364;47.810;8.810;2023-04-15T07:36:08;9.40;88.60
24232;DHT22;12364;47.810;8.810;2023-04-15T07:38:35;9.40;89.10
24232;DHT22;12364;47.810;8.810;2023-04-15T07:41:02;9.50;89.00
24232;DHT22;12364;47.810;8.810;2023-04-15T07:43:29;9.50;88.70
24232;DHT22;12364;47.810;8.810;2023-04-15T07:45:56;9.60;88.70
24232;DHT22;12364;47.810;8.810;2023-04-15T07:48:23;9.70;88.70
24232;DHT22;12364;47.810;8.810;2023-04-15T07:50:50;9.70;88.90
24232;DHT22;12364;47.810;8.810;2023-04-15T07:53:17;9.70;87.80
24232;DHT22;12364;47.810;8.810;2023-04-15T07:55:44;9.70;87.70
24232;DHT22;12364;47.810;8.810;2023-04-15T07:58:11;9.80;87.10
24232;DHT22;12364;47.810;8.810;2023-04-15T08:00:38;9.80;87.30
24232;DHT22;12364;47.810;8.810;2023-04-15T08:03:05;9.80;87.50
24232;DHT22;12364;47.810;8.810;2023-04-15T08:05:32;9.80;87.10
24232;DHT22;12364;47.810;8.810;2023-04-15T08:07:59;9.90;87.80
24232;DHT22;12364;47.810;8.810;2023-04-15T08:10:28;9.90;87.50
24232;DHT22;12364;47.810;8.810;2023-04-15T08:12:55;10.00;86.60
24232;DHT22;12364;47.810;8.810;2023-04-15T08:15:24;10.10;86.80
24232;DHT22;12364;47.810;8.810;2023-04-15T08:17:51;10.10;87.00
24232;DHT22;12364;47.810;8.810;2023-04-15T08:20:18;10.10;86.70
24232;DHT22;12364;47.810;8.810;2023-04-15T08:22:45;10.20;86.50
24232;DHT22;12364;47.810;8.810;2023-04-15T08:25:17;10.20;86.30
24232;DHT22;12364;47.810;8.810;2023-04-15T08:27:45;10.30;86.80
24232;DHT22;12364;47.810;8.810;2023-04-15T08:30:12;10.30;87.30
24232;DHT22;12364;47.810;8.810;2023-04-15T08:32:41;10.40;86.90
24232;DHT22;12364;47.810;8.810;2023-04-15T08:35:08;10.40;86.50
24232;DHT22;12364;47.810;8.810;2023-04-15T08:37:35;10.60;86.50
24232;DHT22;12364;47.810;8.810;2023-04-15T08:40:02;10.50;86.90
24232;DHT22;12364;47.810;8.810;2023-04-15T08:42:34;10.50;86.90
24232;DHT22;12364;47.810;8.810;2023-04-15T08:45:03;10.60;86.70
24232;DHT22;12364;47.810;8.810;2023-04-15T08:47:30;10.60;87.00
24232;DHT22;12364;47.810;8.810;2023-04-15T08:50:00;10.70;86.10
24232;DHT22;12364;47.810;8.810;2023-04-15T08:52:30;10.70;85.80
24232;DHT22;12364;47.810;8.810;2023-04-15T08:54:58;10.80;85.70
24232;DHT22;12364;47.810;8.810;2023-04-15T08:57:27;10.90;86.60
24232;DHT22;12364;47.810;8.810;2023-04-15T08:59:54;10.90;86.10
24232;DHT22;12364;47.810;8.810;2023-04-15T09:02:22;11.00;85.80
24232;DHT22;12364;47.810;8.810;2023-04-15T09:04:49;11.00;86.90
24232;DHT22;12364;47.810;8.810;2023-04-15T09:07:16;11.00;86.80
24232;DHT22;12364;47.810;8.810;2023-04-15T09:09:43;11.10;86.80
24232;DHT22;12364;47.810;8.810;2023-04-15T09:12:10;11.20;87.30
24232;DHT22;12364;47.810;8.810;2023-04-15T09:14:39;11.30;86.80
24232;DHT22;12364;47.810;8.810;2023-04-15T09:17:07;11.20;87.40
24232;DHT22;12364;47.810;8.810;2023-04-15T09:19:35;11.30;86.50
24232;DHT22;12364;47.810;8.810;2023-04-15T09:22:02;11.30;86.90
24232;DHT22;12364;47.810;8.810;2023-04-15T09:24:34;11.30;87.30
24232;DHT22;12364;47.810;8.810;2023-04-15T09:27:03;11.40;87.30
24232;DHT22;12364;47.810;8.810;2023-04-15T09:29:30;11.50;87.10
24232;DHT22;12364;47.810;8.810;2023-04-15T09:32:08;11.60;86.40
24232;DHT22;12364;47.810;8.810;2023-04-15T09:34:35;11.60;86.80
24232;DHT22;12364;47.810;8.810;2023-04-15T09:37:03;11.70;87.10
24232;DHT22;12364;47.810;8.810;2023-04-15T09:39:46;11.70;87.00
24232;DHT22;12364;47.810;8.810;2023-04-15T09:42:14;11.80;87.10
24232;DHT22;12364;47.810;8.810;2023-04-15T09:44:41;11.90;86.90
24232;DHT22;12364;47.810;8.810;2023-04-15T09:47:08;11.90;86.70
24232;DHT22;12364;47.810;8.810;2023-04-15T09:49:35;12.00;86.20
24232;DHT22;12364;47.810;8.810;2023-04-15T09:52:02;12.00;85.70
24232;DHT22;12364;47.810;8.810;2023-04-15T09:54:35;12.10;85.80
24232;DHT22;12364;47.810;8.810;2023-04-15T09:57:07;12.10;85.60
24232;DHT22;12364;47.810;8.810;2023-04-15T09:59:34;12.20;86.00
24232;DHT22;12364;47.810;8.810;2023-04-15T10:02:03;12.20;86.10
24232;DHT22;12364;47.810;8.810;2023-04-15T10:04:30;12.30;85.70
24232;DHT22;12364;47.810;8.810;2023-04-15T10:06:58;12.30;85.80
24232;DHT22;12364;47.810;8.810;2023-04-15T10:09:26;12.30;86.50
24232;DHT22;12364;47.810;8.810;2023-04-15T10:11:54;12.50;86.40
24232;DHT22;12364;47.810;8.810;2023-04-15T10:14:22;12.50;86.00
24232;DHT22;12364;47.810;8.810;2023-04-15T10:16:50;12.60;85.70
24232;DHT22;12364;47.810;8.810;2023-04-15T10:19:19;12.60;85.10
24232;DHT22;12364;47.810;8.810;2023-04-15T10:21:48;12.60;86.60
24232;DHT22;12364;47.810;8.810;2023-04-15T10:24:16;12.70;86.70
24232;DHT22;12364;47.810;8.810;2023-04-15T10:26:43;12.70;86.60
24232;DHT22;12364;47.810;8.810;2023-04-15T10:29:10;12.80;86.70
24232;DHT22;12364;47.810;8.810;2023-04-15T10:31:37;12.80;86.40
24232;DHT22;12364;47.810;8.810;2023-04-15T10:34:04;12.90;86.00
24232;DHT22;12364;47.810;8.810;2023-04-15T10:36:32;12.90;85.70
24232;DHT22;12364;47.810;8.810;2023-04-15T10:38:59;13.00;86.40
24232;DHT22;12364;47.810;8.810;2023-04-15T10:41:27;13.00;85.90
24232;DHT22;12364;47.810;8.810;2023-04-15T10:44:03;13.10;86.10
24232;DHT22;12364;47.810;8.810;2023-04-15T10:46:38;13.10;86.10
24232;DHT22;12364;47.810;8.810;2023-04-15T10:49:09;13.10;85.30
24232;DHT22;12364;47.810;8.810;2023-04-15T10:51:43;13.10;85.50
24232;DHT22;12364;47.810;8.810;2023-04-15T10:56:50;13.20;85.00
24232;DHT22;12364;47.810;8.810;2023-04-15T10:59:17;13.20;85.20
24232;DHT22;12364;47.810;8.810;2023-04-15T11:01:54;13.30;85.10
24232;DHT22;12364;47.810;8.810;2023-04-15T11:07:09;13.40;82.50
24232;DHT22;12364;47.810;8.810;2023-04-15T11:09:36;13.40;82.00
24232;DHT22;12364;47.810;8.810;2023-04-15T11:12:07;13.40;83.30
24232;DHT22;12364;47.810;8.810;2023-04-15T11:14:38;13.40;82.40
24232;DHT22;12364;47.810;8.810;2023-04-15T11:17:05;13.50;82.10
24232;DHT22;12364;47.810;8.810;2023-04-15T11:19:36;13.50;81.40
24232;DHT22;12364;47.810;8.810;2023-04-15T11:22:09;13.60;80.60
24232;DHT22;12364;47.810;8.810;2023-04-15T11:24:45;13.60;81.10
24232;DHT22;12364;47.810;8.810;2023-04-15T11:27:19;13.70;79.50
24232;DHT22;12364;47.810;8.810;2023-04-15T11:29:46;13.80;78.90
24232;DHT22;12364;47.810;8.810;2023-04-15T11:32:13;13.90;78.40
24232;DHT22;12364;47.810;8.810;2023-04-15T11:34:40;14.00;77.80
24232;DHT22;12364;47.810;8.810;2023-04-15T11:37:07;13.90;77.00
24232;DHT22;12364;47.810;8.810;2023-04-15T11:39:36;13.90;77.20
24232;DHT22;12364;47.810;8.810;2023-04-15T11:42:03;14.10;75.90
24232;DHT22;12364;47.810;8.810;2023-04-15T11:44:29;14.00;75.50
24232;DHT22;12364;47.810;8.810;2023-04-15T11:46:56;14.00;74.60
24232;DHT22;12364;47.810;8.810;2023-04-15T11:49:29;14.10;74.70
24232;DHT22;12364;47.810;8.810;2023-04-15T11:51:57;14.10;75.10
24232;DHT22;12364;47.810;8.810;2023-04-15T11:54:24;14.20;73.90
24232;DHT22;12364;47.810;8.810;2023-04-15T11:56:51;14.10;75.10
24232;DHT22;12364;47.810;8.810;2023-04-15T11:59:19;14.10;76.60
24232;DHT22;12364;47.810;8.810;2023-04-15T12:01:46;14.10;77.20
24232;DHT22;12364;47.810;8.810;2023-04-15T12:04:16;14.10;76.50
24232;DHT22;12364;47.810;8.810;2023-04-15T12:06:50;14.10;75.60
24232;DHT22;12364;47.810;8.810;2023-04-15T12:09:17;14.10;75.40
24232;DHT22;12364;47.810;8.810;2023-04-15T12:11:49;14.10;75.10
24232;DHT22;12364;47.810;8.810;2023-04-15T12:14:29;14.10;74.90
24232;DHT22;12364;47.810;8.810;2023-04-15T12:16:57;14.10;74.20
24232;DHT22;12364;47.810;8.810;2023-04-15T12:19:29;14.20;74.30
24232;DHT22;12364;47.810;8.810;2023-04-15T12:21:59;14.20;75.30
24232;DHT22;12364;47.810;8.810;2023-04-15T12:24:27;14.20;72.40
24232;DHT22;12364;47.810;8.810;2023-04-15T12:26:54;14.20;71.50
24232;DHT22;12364;47.810;8.810;2023-04-15T12:29:25;14.20;72.20
24232;DHT22;12364;47.810;8.810;2023-04-15T12:31:56;14.20;71.00
24232;DHT22;12364;47.810;8.810;2023-04-15T12:34:27;14.20;72.00
24232;DHT22;12364;47.810;8.810;2023-04-15T12:36:55;14.30;74.00
24232;DHT22;12364;47.810;8.810;2023-04-15T12:39:23;14.40;73.40
24232;DHT22;12364;47.810;8.810;2023-04-15T12:41:51;14.40;73.60
24232;DHT22;12364;47.810;8.810;2023-04-15T12:44:18;14.50;72.80
24232;DHT22;12364;47.810;8.810;2023-04-15T12:46:46;14.50;73.90
24232;DHT22;12364;47.810;8.810;2023-04-15T12:49:13;14.50;72.10
24232;DHT22;12364;47.810;8.810;2023-04-15T12:51:41;14.50;72.00
24232;DHT22;12364;47.810;8.810;2023-04-15T12:54:08;14.50;72.10
24232;DHT22;12364;47.810;8.810;2023-04-15T12:56:35;14.60;69.40
24232;DHT22;12364;47.810;8.810;2023-04-15T12:59:02;14.50;69.00
24232;DHT22;12364;47.810;8.810;2023-04-15T13:01:29;14.50;68.40
24232;DHT22;12364;47.810;8.810;2023-04-15T13:03:56;14.60;68.70
24232;DHT22;12364;47.810;8.810;2023-04-15T13:06:24;14.60;68.30
24232;DHT22;12364;47.810;8.810;2023-04-15T13:08:51;14.60;70.30
24232;DHT22;12364;47.810;8.810;2023-04-15T13:11:24;14.70;69.40
24232;DHT22;12364;47.810;8.810;2023-04-15T13:13:51;14.70;69.70
24232;DHT22;12364;47.810;8.810;2023-04-15T13:16:18;14.70;71.90
24232;DHT22;12364;47.810;8.810;2023-04-15T13:18:47;14.80;75.60
24232;DHT22;12364;47.810;8.810;2023-04-15T13:21:14;14.70;76.50
24232;DHT22;12364;47.810;8.810;2023-04-15T13:23:41;14.70;77.30
24232;DHT22;12364;47.810;8.810;2023-04-15T13:26:08;14.80;76.70
24232;DHT22;12364;47.810;8.810;2023-04-15T13:28:35;14.70;77.10
24232;DHT22;12364;47.810;8.810;2023-04-15T13:31:03;14.70;76.80
24232;DHT22;12364;47.810;8.810;2023-04-15T13:33:31;14.70;76.30
24232;DHT22;12364;47.810;8.810;2023-04-15T13:35:58;14.70;76.70
24232;DHT22;12364;47.810;8.810;2023-04-15T13:38:25;14.70;77.10
24232;DHT22;12364;47.810;8.810;2023-04-15T13:40:52;14.70;77.40
24232;DHT22;12364;47.810;8.810;2023-04-15T13:43:19;14.80;77.80
24232;DHT22;12364;47.810;8.810;2023-04-15T13:45:47;14.80;77.70
24232;DHT22;12364;47.810;8.810;2023-04-15T13:48:14;14.80;77.70
24232;DHT22;12364;47.810;8.810;2023-04-15T13:50:41;14.80;78.30
24232;DHT22;12364;47.810;8.810;2023-04-15T13:53:11;14.80;78.10
24232;DHT22;12364;47.810;8.810;2023-04-15T13:55:38;14.70;77.40
24232;DHT22;12364;47.810;8.810;2023-04-15T13:58:09;14.70;77.80
24232;DHT22;12364;47.810;8.810;2023-04-15T14:00:36;14.50;77.70
24232;DHT22;12364;47.810;8.810;2023-04-15T14:03:03;14.50;79.00
24232;DHT22;12364;47.810;8.810;2023-04-15T14:05:31;14.60;78.70
24232;DHT22;12364;47.810;8.810;2023-04-15T14:07:58;14.60;78.30
24232;DHT22;12364;47.810;8.810;2023-04-15T14:10:25;14.50;77.50
24232;DHT22;12364;47.810;8.810;2023-04-15T14:12:52;14.40;78.50
24232;DHT22;12364;47.810;8.810;2023-04-15T14:15:19;14.50;78.30
24232;DHT22;12364;47.810;8.810;2023-04-15T14:17:46;14.40;77.70
24232;DHT22;12364;47.810;8.810;2023-04-15T14:20:13;14.30;78.50
24232;DHT22;12364;47.810;8.810;2023-04-15T14:22:42;14.40;79.30
24232;DHT22;12364;47.810;8.810;2023-04-15T14:25:09;14.50;78.90
24232;DHT22;12364;47.810;8.810;2023-04-15T14:27:49;14.40;78.70
24232;DHT22;12364;47.810;8.810;2023-04-15T14:30:16;14.30;78.60
24232;DHT22;12364;47.810;8.810;2023-04-15T14:32:43;14.20;79.40
24232;DHT22;12364;47.810;8.810;2023-04-15T14:35:10;14.40;80.70
24232;DHT22;12364;47.810;8.810;2023-04-15T14:37:37;14.30;81.10
24232;DHT22;12364;47.810;8.810;2023-04-15T14:40:04;14.40;80.80
24232;DHT22;12364;47.810;8.810;2023-04-15T14:42:31;14.30;79.70
24232;DHT22;12364;47.810;8.810;2023-04-15T14:44:58;14.20;80.20
24232;DHT22;12364;47.810;8.810;2023-04-15T14:47:25;14.20;80.20
24232;DHT22;12364;47.810;8.810;2023-04-15T14:49:52;14.10;80.70
24232;DHT22;12364;47.810;8.810;2023-04-15T14:52:19;14.30;81.10
24232;DHT22;12364;47.810;8.810;2023-04-15T14:54:46;14.20;80.80
24232;DHT22;12364;47.810;8.810;2023-04-15T14:57:13;14.30;81.20
24232;DHT22;12364;47.810;8.810;2023-04-15T14:59:40;14.40;82.40
24232;DHT22;12364;47.810;8.810;2023-04-15T15:02:07;14.30;83.30
24232;DHT22;12364;47.810;8.810;2023-04-15T15:04:34;14.20;83.70
24232;DHT22;12364;47.810;8.810;2023-04-15T15:07:02;13.90;84.20
24232;DHT22;12364;47.810;8.810;2023-04-15T15:09:29;13.90;84.70
24232;DHT22;12364;47.810;8.810;2023-04-15T15:11:56;14.10;84.80
24232;DHT22;12364;47.810;8.810;2023-04-15T15:14:23;14.00;82.80
24232;DHT22;12364;47.810;8.810;2023-04-15T15:16:50;14.10;82.70
24232;DHT22;12364;47.810;8.810;2023-04-15T15:19:17;14.20;83.90
24232;DHT22;12364;47.810;8.810;2023-04-15T15:21:44;14.20;83.60
24232;DHT22;12364;47.810;8.810;2023-04-15T15:24:11;14.20;83.20
24232;DHT22;12364;47.810;8.810;2023-04-15T15:26:38;14.30;83.20
24232;DHT22;12364;47.810;8.810;2023-04-15T15:29:05;14.30;81.90
24232;DHT22;12364;47.810;8.810;2023-04-15T15:31:33;14.30;82.00
24232;DHT22;12364;47.810;8.810;2023-04-15T15:34:00;14.40;81.60
24232;DHT22;12364;47.810;8.810;2023-04-15T15:36:28;14.40;81.60
24232;DHT22;12364;47.810;8.810;2023-04-15T15:38:57;14.20;81.20
24232;DHT22;12364;47.810;8.810;2023-04-15T15:41:25;14.40;82.10
24232;DHT22;12364;47.810;8.810;2023-04-15T15:43:52;14.10;81.80
24232;DHT22;12364;47.810;8.810;2023-04-15T15:46:19;14.00;82.30
24232;DHT22;12364;47.810;8.810;2023-04-15T15:48:47;14.00;82.20
24232;DHT22;12364;47.810;8.810;2023-04-15T15:51:13;14.00;82.10
24232;DHT22;12364;47.810;8.810;2023-04-15T15:53:41;14.00;82.40
24232;DHT22;12364;47.810;8.810;2023-04-15T15:56:08;14.00;83.30
24232;DHT22;12364;47.810;8.810;2023-04-15T15:58:35;14.10;83.90
24232;DHT22;12364;47.810;8.810;2023-04-15T16:01:02;14.10;84.30
24232;DHT22;12364;47.810;8.810;2023-04-15T16:03:28;14.10;83.70
24232;DHT22;12364;47.810;8.810;2023-04-15T16:05:56;14.10;84.10
24232;DHT22;12364;47.810;8.810;2023-04-15T16:08:23;14.20;84.00
24232;DHT22;12364;47.810;8.810;2023-04-15T16:10:50;14.20;83.60
24232;DHT22;12364;47.810;8.810;2023-04-15T16:13:17;14.20;83.90
24232;DHT22;12364;47.810;8.810;2023-04-15T16:15:44;14.20;84.00
24232;DHT22;12364;47.810;8.810;2023-04-15T16:18:11;14.20;83.80
24232;DHT22;12364;47.810;8.810;2023-04-15T16:20:38;14.10;83.70
24232;DHT22;12364;47.810;8.810;2023-04-15T16:23:07;14.10;83.90
24232;DHT22;12364;47.810;8.810;2023-04-15T16:25:37;14.10;84.50
24232;DHT22;12364;47.810;8.810;2023-04-15T16:28:04;14.10;84.70
24232;DHT22;12364;47.810;8.810;2023-04-15T16:30:48;14.10;84.80
24232;DHT22;12364;47.810;8.810;2023-04-15T16:33:15;14.20;84.80
24232;DHT22;12364;47.810;8.810;2023-04-15T16:35:42;14.00;84.70
24232;DHT22;12364;47.810;8.810;2023-04-15T16:38:09;14.00;85.50
24232;DHT22;12364;47.810;8.810;2023-04-15T16:40:36;14.00;86.10
24232;DHT22;12364;47.810;8.810;2023-04-15T16:43:03;14.00;86.10
24232;DHT22;12364;47.810;8.810;2023-04-15T16:45:32;13.90;86.20
24232;DHT22;12364;47.810;8.810;2023-04-15T16:47:59;13.90;86.30
24232;DHT22;12364;47.810;8.810;2023-04-15T16:50:26;13.80;86.70
24232;DHT22;12364;47.810;8.810;2023-04-15T16:52:53;13.80;87.00
24232;DHT22;12364;47.810;8.810;2023-04-15T16:55:20;13.80;87.10
24232;DHT22;12364;47.810;8.810;2023-04-15T16:57:47;13.80;87.30
24232;DHT22;12364;47.810;8.810;2023-04-15T17:00:29;13.70;87.40
24232;DHT22;12364;47.810;8.810;2023-04-15T17:02:59;13.70;87.60
24232;DHT22;12364;47.810;8.810;2023-04-15T17:05:27;13.70;87.50
24232;DHT22;12364;47.810;8.810;2023-04-15T17:07:54;13.60;87.30
24232;DHT22;12364;47.810;8.810;2023-04-15T17:10:22;13.50;87.50
24232;DHT22;12364;47.810;8.810;2023-04-15T17:12:49;13.50;87.60
24232;DHT22;12364;47.810;8.810;2023-04-15T17:15:18;13.50;87.80
24232;DHT22;12364;47.810;8.810;2023-04-15T17:17:45;13.40;88.10
24232;DHT22;12364;47.810;8.810;2023-04-15T17:20:12;13.50;88.20
24232;DHT22;12364;47.810;8.810;2023-04-15T17:22:39;13.50;88.20
24232;DHT22;12364;47.810;8.810;2023-04-15T17:25:06;13.60;88.30
24232;DHT22;12364;47.810;8.810;2023-04-15T17:27:33;13.40;88.40
24232;DHT22;12364;47.810;8.810;2023-04-15T17:30:00;13.30;88.50
24232;DHT22;12364;47.810;8.810;2023-04-15T17:32:27;13.20;89.20
24232;DHT22;12364;47.810;8.810;2023-04-15T17:34:57;13.20;88.50
24232;DHT22;12364;47.810;8.810;2023-04-15T17:37:24;13.20;88.50
24232;DHT22;12364;47.810;8.810;2023-04-15T17:39:52;13.10;88.20
24232;DHT22;12364;47.810;8.810;2023-04-15T17:42:19;13.00;88.40
24232;DHT22;12364;47.810;8.810;2023-04-15T17:44:48;12.90;88.70
24232;DHT22;12364;47.810;8.810;2023-04-15T17:47:15;12.90;88.90
24232;DHT22;12364;47.810;8.810;2023-04-15T17:49:42;12.90;89.20
24232;DHT22;12364;47.810;8.810;2023-04-15T17:52:09;12.80;89.00
24232;DHT22;12364;47.810;8.810;2023-04-15T17:54:36;12.90;89.10
24232;DHT22;12364;47.810;8.810;2023-04-15T17:57:03;12.90;88.70
24232;DHT22;12364;47.810;8.810;2023-04-15T17:59:30;12.90;88.60
24232;DHT22;12364;47.810;8.810;2023-04-15T18:01:59;12.90;87.50
24232;DHT22;12364;47.810;8.810;2023-04-15T18:04:26;12.90;86.40
24232;DHT22;12364;47.810;8.810;2023-04-15T18:06:53;12.80;87.40
24232;DHT22;12364;47.810;8.810;2023-04-15T18:09:20;12.80;86.90
24232;DHT22;12364;47.810;8.810;2023-04-15T18:11:48;12.80;87.80
24232;DHT22;12364;47.810;8.810;2023-04-15T18:14:15;12.90;87.40
24232;DHT22;12364;47.810;8.810;2023-04-15T18:16:59;13.00;87.10
24232;DHT22;12364;47.810;8.810;2023-04-15T18:19:26;13.00;86.80
24232;DHT22;12364;47.810;8.810;2023-04-15T18:21:53;13.00;86.20
24232;DHT22;12364;47.810;8.810;2023-04-15T18:24:21;13.20;86.10
24232;DHT22;12364;47.810;8.810;2023-04-15T18:26:48;13.10;86.10
24232;DHT22;12364;47.810;8.810;2023-04-15T18:29:15;13.20;86.70
24232;DHT22;12364;47.810;8.810;2023-04-15T18:31:42;13.20;87.30
24232;DHT22;12364;47.810;8.810;2023-04-15T18:34:09;13.20;87.30
24232;DHT22;12364;47.810;8.810;2023-04-15T18:36:36;13.20;86.90
24232;DHT22;12364;47.810;8.810;2023-04-15T18:39:03;13.10;86.90
24232;DHT22;12364;47.810;8.810;2023-04-15T18:41:31;13.10;87.10
24232;DHT22;12364;47.810;8.810;2023-04-15T18:43:58;13.10;87.20
24232;DHT22;12364;47.810;8.810;2023-04-15T18:46:25;13.10;87.20
24232;DHT22;12364;47.810;8.810;2023-04-15T18:48:53;13.10;87.30
24232;DHT22;12364;47.810;8.810;2023-04-15T18:51:20;13.10;87.10
24232;DHT22;12364;47.810;8.810;2023-04-15T18:53:47;13.20;87.20
24232;DHT22;12364;47.810;8.810;2023-04-15T18:56:14;13.10;86.90
24232;DHT22;12364;47.810;8.810;2023-04-15T18:58:41;13.00;87.10
24232;DHT22;12364;47.810;8.810;2023-04-15T19:01:29;13.00;87.10
24232;DHT22;12364;47.810;8.810;2023-04-15T19:03:57;13.00;87.20
24232;DHT22;12364;47.810;8.810;2023-04-15T19:06:25;13.00;87.40
24232;DHT22;12364;47.810;8.810;2023-04-15T19:08:53;13.00;87.60
24232;DHT22;12364;47.810;8.810;2023-04-15T19:11:20;13.10;87.80
24232;DHT22;12364;47.810;8.810;2023-04-15T19:13:47;13.20;87.50
24232;DHT22;12364;47.810;8.810;2023-04-15T19:16:14;13.10;87.60
24232;DHT22;12364;47.810;8.810;2023-04-15T19:18:41;13.20;87.90
24232;DHT22;12364;47.810;8.810;2023-04-15T19:21:09;13.20;88.60
24232;DHT22;12364;47.810;8.810;2023-04-15T19:23:37;13.20;88.80
24232;DHT22;12364;47.810;8.810;2023-04-15T19:26:04;13.40;88.60
24232;DHT22;12364;47.810;8.810;2023-04-15T19:28:34;13.30;88.50
24232;DHT22;12364;47.810;8.810;2023-04-15T19:31:01;13.30;89.40
24232;DHT22;12364;47.810;8.810;2023-04-15T19:33:28;13.30;90.00
24232;DHT22;12364;47.810;8.810;2023-04-15T19:36:00;13.20;89.80
24232;DHT22;12364;47.810;8.810;2023-04-15T19:38:27;13.30;90.10
24232;DHT22;12364;47.810;8.810;2023-04-15T19:40:54;13.30;90.50
24232;DHT22;12364;47.810;8.810;2023-04-15T19:43:21;13.40;90.60
24232;DHT22;12364;47.810;8.810;2023-04-15T19:45:49;13.30;90.60
24232;DHT22;12364;47.810;8.810;2023-04-15T19:48:18;13.30;90.50
24232;DHT22;12364;47.810;8.810;2023-04-15T19:50:46;13.20;90.80
24232;DHT22;12364;47.810;8.810;2023-04-15T19:53:12;13.20;91.00
24232;DHT22;12364;47.810;8.810;2023-04-15T19:55:39;13.20;91.10
24232;DHT22;12364;47.810;8.810;2023-04-15T19:58:07;13.20;91.20
24232;DHT22;12364;47.810;8.810;2023-04-15T20:00:35;13.20;90.90
24232;DHT22;12364;47.810;8.810;2023-04-15T20:03:02;13.20;91.10
24232;DHT22;12364;47.810;8.810;2023-04-15T20:05:29;13.20;91.20
24232;DHT22;12364;47.810;8.810;2023-04-15T20:07:56;13.30;91.40
24232;DHT22;12364;47.810;8.810;2023-04-15T20:10:25;13.10;91.40
24232;DHT22;12364;47.810;8.810;2023-04-15T20:12:52;13.10;91.70
24232;DHT22;12364;47.810;8.810;2023-04-15T20:15:19;13.30;91.90